createdAt,value
2024-02-09T00:01:02.874Z,5.50
2024-02-09T00:03:36.972Z,6.70
2024-02-09T00:06:09.440Z,5.85
2024-02-09T00:08:41.962Z,5.90
2024-02-09T00:11:14.569Z,5.55
2024-02-09T00:13:46.833Z,5.45
2024-02-09T00:16:19.137Z,5.38
2024-02-09T00:18:52.088Z,6.05
2024-02-09T00:21:24.367Z,5.30
2024-02-09T00:23:56.702Z,5.10
2024-02-09T00:26:29.044Z,5.20
2024-02-09T00:29:02.602Z,4.70
2024-02-09T00:31:34.756Z,5.07
2024-02-09T00:34:07.040Z,5.07
2024-02-09T00:36:39.502Z,4.50
2024-02-09T00:39:11.649Z,4.32
2024-02-09T00:41:44.578Z,4.22
2024-02-09T00:44:17.526Z,3.80
2024-02-09T00:46:51.609Z,4.03
2024-02-09T00:49:24.010Z,4.07
2024-02-09T00:51:57.627Z,3.53
2024-02-09T00:54:31.477Z,3.78
2024-02-09T00:57:06.666Z,4.60
2024-02-09T00:59:40.547Z,3.90
2024-02-09T01:02:12.954Z,3.47
2024-02-09T01:04:45.921Z,3.10
2024-02-09T01:07:18.276Z,3.58
2024-02-09T01:09:50.450Z,3.60
2024-02-09T01:12:41.186Z,3.90
2024-02-09T01:15:31.624Z,3.05
2024-02-09T01:18:22.599Z,3.35
2024-02-09T01:21:13.491Z,3.30
2024-02-09T01:24:03.887Z,3.20
2024-02-09T01:26:54.329Z,3.35
2024-02-09T01:29:44.800Z,3.05
2024-02-09T01:32:35.296Z,3.38
2024-02-09T01:35:25.873Z,3.15
2024-02-09T01:38:16.407Z,2.95
2024-02-09T01:41:07.267Z,2.95
2024-02-09T01:43:58.157Z,2.80
2024-02-09T01:46:48.776Z,2.70
2024-02-09T01:49:39.816Z,3.10
2024-02-09T01:52:31.302Z,3.17
2024-02-09T01:55:22.224Z,2.78
2024-02-09T01:58:14.484Z,2.63
2024-02-09T02:01:05.109Z,2.78
2024-02-09T02:03:56.685Z,2.50
2024-02-09T02:06:47.901Z,2.80
2024-02-09T02:09:38.553Z,3.00
2024-02-09T02:12:29.191Z,2.97
2024-02-09T02:15:19.499Z,2.95
2024-02-09T02:18:10.053Z,2.63
2024-02-09T02:21:00.498Z,2.70
2024-02-09T02:23:55.600Z,2.40
2024-02-09T02:26:45.880Z,2.58
2024-02-09T02:29:36.514Z,2.60
2024-02-09T02:32:26.925Z,2.42
2024-02-09T02:35:17.940Z,2.70
2024-02-09T02:38:08.346Z,2.40
2024-02-09T02:40:58.865Z,2.53
2024-02-09T02:43:30.922Z,2.70
2024-02-09T02:46:03.162Z,2.90
2024-02-09T02:48:54.168Z,2.78
2024-02-09T02:51:45.377Z,2.92
2024-02-09T02:54:36.518Z,2.67
2024-02-09T03:01:19.844Z,2.80
2024-02-09T03:04:10.559Z,2.85
2024-02-09T03:07:03.310Z,3.58
2024-02-09T03:09:34.991Z,3.55
2024-02-09T03:12:07.343Z,3.80
2024-02-09T03:14:41.528Z,4.45
2024-02-09T03:17:13.810Z,3.92
2024-02-09T03:19:46.103Z,4.03
2024-02-09T03:22:18.349Z,3.90
2024-02-09T03:24:50.563Z,4.28
2024-02-09T03:27:22.814Z,4.20
2024-02-09T03:29:56.233Z,4.40
2024-02-09T03:32:36.163Z,4.03
2024-02-09T03:35:10.938Z,5.32
2024-02-09T03:37:46.770Z,4.30
2024-02-09T03:40:19.275Z,4.22
2024-02-09T03:42:51.446Z,4.63
2024-02-09T03:45:23.880Z,4.63
2024-02-09T03:47:56.645Z,5.32
2024-02-09T03:50:29.302Z,5.30
2024-02-09T03:53:02.534Z,5.15
2024-02-09T03:55:34.716Z,5.15
2024-02-09T03:58:07.614Z,5.07
2024-02-09T04:00:39.818Z,5.28
2024-02-09T04:07:13.349Z,6.10
2024-02-09T04:10:03.904Z,6.15
2024-02-09T04:12:37.897Z,5.75
2024-02-09T04:15:12.819Z,6.18
2024-02-09T04:17:46.028Z,6.40
2024-02-09T04:20:18.328Z,6.00
2024-02-09T04:22:52.561Z,7.05
2024-02-09T04:25:36.162Z,6.40
2024-02-09T04:28:08.462Z,5.97
2024-02-09T04:34:42.283Z,6.65
2024-02-09T04:37:14.642Z,6.90
2024-02-09T04:39:47.507Z,6.30
2024-02-09T04:42:22.198Z,6.28
2024-02-09T04:45:35.140Z,6.38
2024-02-09T04:48:07.985Z,6.75
2024-02-09T04:50:40.209Z,5.68
2024-02-09T04:57:13.684Z,5.65
2024-02-09T04:59:45.851Z,5.72
2024-02-09T05:02:19.086Z,5.88
2024-02-09T05:04:51.561Z,5.18
2024-02-09T05:07:23.963Z,5.60
2024-02-09T05:11:05.079Z,5.57
2024-02-09T05:13:38.842Z,5.25
2024-02-09T05:16:11.216Z,5.65
2024-02-09T05:18:43.873Z,5.63
2024-02-09T05:21:16.465Z,5.75
2024-02-09T05:23:48.863Z,6.10
2024-02-09T05:30:22.257Z,5.57
2024-02-09T05:33:37.971Z,5.70
2024-02-09T05:40:03.608Z,5.32
2024-02-09T05:42:35.776Z,6.70
2024-02-09T05:45:08.019Z,6.45
2024-02-09T05:47:40.335Z,5.32
2024-02-09T05:50:18.106Z,6.07
2024-02-09T05:52:58.662Z,5.68
2024-02-09T05:55:31.037Z,6.32
2024-02-09T05:58:03.315Z,5.53
2024-02-09T06:00:35.605Z,5.22
2024-02-09T06:03:09.392Z,5.43
2024-02-09T06:05:43.049Z,5.72
2024-02-09T06:08:15.651Z,5.47
2024-02-09T06:10:50.096Z,6.78
2024-02-09T06:13:22.426Z,5.97
2024-02-09T06:15:59.414Z,5.55
2024-02-09T06:18:34.156Z,6.40
2024-02-09T06:21:06.615Z,6.63
2024-02-09T06:23:40.970Z,5.75
2024-02-09T06:26:15.933Z,4.93
2024-02-09T06:28:50.308Z,5.72
2024-02-09T06:31:28.426Z,6.13
2024-02-09T06:34:01.236Z,5.68
2024-02-09T06:36:34.059Z,5.85
2024-02-09T06:39:08.276Z,6.07
2024-02-09T06:41:40.413Z,5.55
2024-02-09T06:44:12.588Z,6.53
2024-02-09T06:46:44.720Z,6.45
2024-02-09T06:49:17.802Z,7.13
2024-02-09T06:51:52.616Z,6.78
2024-02-09T06:54:24.864Z,6.95
2024-02-09T06:56:57.083Z,7.57
2024-02-09T06:59:29.328Z,6.93
2024-02-09T07:02:02.856Z,7.90
2024-02-09T07:04:37.710Z,8.60
2024-02-09T07:07:11.831Z,8.43
2024-02-09T07:09:44.195Z,7.45
2024-02-09T07:12:18.819Z,7.80
2024-02-09T07:14:52.869Z,8.55
2024-02-09T07:17:26.817Z,8.48
2024-02-09T07:20:00.767Z,7.90
2024-02-09T07:22:36.514Z,7.53
2024-02-09T07:25:08.857Z,7.38
2024-02-09T07:27:41.294Z,7.53
2024-02-09T07:30:14.517Z,6.97
2024-02-09T07:32:46.813Z,7.15
2024-02-09T07:35:19.272Z,6.63
2024-02-09T07:38:36.649Z,7.00
2024-02-09T07:41:21.508Z,7.15
2024-02-09T07:43:54.933Z,6.10
2024-02-09T07:46:27.319Z,6.78
2024-02-09T07:48:59.650Z,6.35
2024-02-09T07:51:32.111Z,7.13
2024-02-09T07:54:04.991Z,7.07
2024-02-09T07:59:25.329Z,6.35
2024-02-09T08:01:58.495Z,7.45
2024-02-09T08:04:32.620Z,6.88
2024-02-09T08:10:58.748Z,7.18
2024-02-09T08:13:31.470Z,6.97
2024-02-09T08:20:07.513Z,6.80
2024-02-09T08:22:45.705Z,7.30
2024-02-09T08:25:18.452Z,7.63
2024-02-09T08:27:54.885Z,7.80
2024-02-09T08:30:27.355Z,7.53
2024-02-09T08:33:06.034Z,7.78
2024-02-09T08:35:38.514Z,8.23
2024-02-09T08:38:10.784Z,7.70
2024-02-09T08:40:43.015Z,7.68
2024-02-09T08:43:15.623Z,8.07
2024-02-09T08:45:47.911Z,6.82
2024-02-09T08:48:20.718Z,7.72
2024-02-09T08:50:52.995Z,7.15
2024-02-09T08:53:25.100Z,7.53
2024-02-09T08:55:57.342Z,7.40
2024-02-09T08:58:29.497Z,7.07
2024-02-09T09:01:05.495Z,6.72
2024-02-09T09:03:38.704Z,7.40
2024-02-09T09:06:11.149Z,6.80
2024-02-09T09:08:43.558Z,8.20
2024-02-09T09:11:17.889Z,8.20
2024-02-09T09:13:50.032Z,8.10
2024-02-09T09:16:22.371Z,7.25
2024-02-09T09:18:54.754Z,7.82
2024-02-09T09:21:28.844Z,7.38
2024-02-09T09:24:01.056Z,6.35
2024-02-09T09:26:33.440Z,7.43
2024-02-09T09:29:05.813Z,6.90
2024-02-09T09:31:38.138Z,7.68
2024-02-09T09:34:10.331Z,7.82
2024-02-09T09:36:42.585Z,6.53
2024-02-09T09:39:15.882Z,6.65
2024-02-09T09:41:49.963Z,6.55
2024-02-09T09:44:28.591Z,7.40
2024-02-09T09:47:09.591Z,8.07
2024-02-09T09:49:49.209Z,7.35
2024-02-09T09:52:35.834Z,7.40
2024-02-09T09:55:11.752Z,7.60
2024-02-09T09:57:44.239Z,8.15
2024-02-09T10:00:17.511Z,7.35
2024-02-09T10:02:51.052Z,8.18
2024-02-09T10:05:23.613Z,7.20
2024-02-09T10:07:59.708Z,8.35
2024-02-09T10:10:32.981Z,8.57
2024-02-09T10:13:15.761Z,8.77
2024-02-09T10:15:48.709Z,8.40
2024-02-09T10:18:21.124Z,7.97
2024-02-09T10:20:54.078Z,8.25
2024-02-09T10:23:30.423Z,8.00
2024-02-09T10:26:07.087Z,8.00
2024-02-09T10:28:39.709Z,8.80
2024-02-09T10:31:11.904Z,9.45
2024-02-09T10:33:44.186Z,9.75
2024-02-09T10:36:16.833Z,9.90
2024-02-09T10:38:49.422Z,9.23
2024-02-09T10:41:25.804Z,9.00
2024-02-09T10:44:02.877Z,13.93
2024-02-09T10:46:36.368Z,10.70
2024-02-09T10:49:11.004Z,9.85
2024-02-09T10:51:44.502Z,9.30
2024-02-09T10:54:23.444Z,9.43
2024-02-09T10:56:57.429Z,9.27
2024-02-09T10:59:39.479Z,9.90
2024-02-09T11:02:15.361Z,9.88
2024-02-09T11:04:48.557Z,10.43
2024-02-09T11:07:21.341Z,9.23
2024-02-09T11:09:54.448Z,10.57
2024-02-09T11:12:26.896Z,10.73
2024-02-09T11:15:27.880Z,9.32
2024-02-09T11:18:00.302Z,10.25
2024-02-09T11:20:34.495Z,10.15
2024-02-09T11:23:12.530Z,10.60
2024-02-09T11:25:47.557Z,10.95
2024-02-09T11:28:21.826Z,11.13
2024-02-09T11:30:58.065Z,12.73
2024-02-09T11:33:31.053Z,12.32
2024-02-09T11:36:04.061Z,12.45
2024-02-09T11:38:36.264Z,11.85
2024-02-09T11:41:10.188Z,12.15
2024-02-09T11:43:42.346Z,12.75
2024-02-09T11:46:15.134Z,11.20
2024-02-09T11:48:50.568Z,12.82
2024-02-09T11:51:23.180Z,13.57
2024-02-09T11:53:55.711Z,12.10
2024-02-09T11:56:38.695Z,12.05
2024-02-09T11:59:24.142Z,12.32
2024-02-09T12:02:14.908Z,12.10
2024-02-09T12:04:48.951Z,12.88
2024-02-09T12:07:42.507Z,12.30
2024-02-09T12:10:15.034Z,11.40
2024-02-09T12:12:50.309Z,13.63
2024-02-09T12:15:22.507Z,13.60
2024-02-09T12:18:00.264Z,13.60
2024-02-09T12:20:34.064Z,13.45
2024-02-09T12:23:08.329Z,13.93
2024-02-09T12:25:42.662Z,14.35
2024-02-09T12:28:22.662Z,14.63
2024-02-09T12:30:54.896Z,14.82
2024-02-09T12:33:27.632Z,14.73
2024-02-09T12:36:09.788Z,15.45
2024-02-09T12:38:45.964Z,15.68
2024-02-09T12:41:18.622Z,15.90
2024-02-09T12:44:03.730Z,16.95
2024-02-09T12:46:36.599Z,16.58
2024-02-09T12:49:10.345Z,16.30
2024-02-09T12:51:44.081Z,17.67
2024-02-09T12:54:18.503Z,18.95
2024-02-09T12:56:54.530Z,18.65
2024-02-09T12:59:41.541Z,18.83
2024-02-09T13:02:18.890Z,18.38
2024-02-09T13:04:51.729Z,17.95
2024-02-09T13:08:03.210Z,18.98
2024-02-09T13:10:35.848Z,18.63
2024-02-09T13:13:08.636Z,17.17
2024-02-09T13:15:42.731Z,18.58
2024-02-09T13:18:19.301Z,17.10
2024-02-09T13:20:55.470Z,19.42
2024-02-09T13:23:29.858Z,19.92
2024-02-09T13:26:11.714Z,18.33
2024-02-09T13:28:44.255Z,19.00
2024-02-09T13:31:16.580Z,20.27
2024-02-09T13:33:48.833Z,19.33
2024-02-09T13:36:22.477Z,23.25
2024-02-09T13:38:54.616Z,22.42
2024-02-09T13:41:26.888Z,21.50
2024-02-09T13:43:59.107Z,21.85
2024-02-09T13:46:31.252Z,22.30
2024-02-09T13:49:06.492Z,22.17
2024-02-09T13:51:38.958Z,25.02
2024-02-09T13:54:11.380Z,23.13
2024-02-09T13:56:43.484Z,22.83
2024-02-09T13:59:16.665Z,20.38
2024-02-09T14:01:50.842Z,24.73
2024-02-09T14:04:23.482Z,23.63
2024-02-09T14:07:03.272Z,23.27
2024-02-09T14:09:37.326Z,21.75
2024-02-09T14:12:14.314Z,22.33
2024-02-09T14:14:47.233Z,21.20
2024-02-09T14:17:21.231Z,21.25
2024-02-09T14:19:53.768Z,21.45
2024-02-09T14:22:26.190Z,22.02
2024-02-09T14:24:58.986Z,21.23
2024-02-09T14:27:32.803Z,23.92
2024-02-09T14:30:05.812Z,22.05
2024-02-09T14:32:38.368Z,23.17
2024-02-09T14:35:10.674Z,20.90
2024-02-09T14:37:46.717Z,22.83
2024-02-09T14:40:20.196Z,22.00
2024-02-09T14:42:52.660Z,23.92
2024-02-09T14:45:24.781Z,21.88
2024-02-09T14:47:59.432Z,23.15
2024-02-09T14:50:31.700Z,22.00
2024-02-09T14:53:04.787Z,23.90
2024-02-09T14:55:37.845Z,24.75
2024-02-09T14:58:10.987Z,25.40
2024-02-09T15:00:43.167Z,27.63
2024-02-09T15:03:18.259Z,27.30
2024-02-09T15:05:50.586Z,26.40
2024-02-09T15:08:22.875Z,25.88
2024-02-09T15:10:55.028Z,23.88
2024-02-09T15:13:28.583Z,25.08
2024-02-09T15:16:00.835Z,28.05
2024-02-09T15:18:33.104Z,25.75
2024-02-09T15:21:05.379Z,27.23
2024-02-09T15:23:37.469Z,27.27
2024-02-09T15:26:09.760Z,26.20
2024-02-09T15:28:42.444Z,25.92
2024-02-09T15:31:16.046Z,27.70
2024-02-09T15:33:48.175Z,28.27
2024-02-09T15:36:20.347Z,29.05
2024-02-09T15:38:53.469Z,27.63
2024-02-09T15:41:25.618Z,27.80
2024-02-09T15:43:57.815Z,27.42
2024-02-09T15:46:51.807Z,26.48
2024-02-09T15:49:30.477Z,27.10
2024-02-09T15:52:02.857Z,29.88
2024-02-09T15:54:35.176Z,28.83
2024-02-09T15:57:07.362Z,28.15
2024-02-09T15:59:41.326Z,29.77
2024-02-09T16:02:13.638Z,30.67
2024-02-09T16:04:45.956Z,29.55
2024-02-09T16:07:18.333Z,28.70
2024-02-09T16:09:51.488Z,28.30
2024-02-09T16:12:23.891Z,32.47
2024-02-09T16:14:59.251Z,27.80
2024-02-09T16:17:37.117Z,26.70
2024-02-09T16:20:16.416Z,25.73
2024-02-09T16:22:50.788Z,23.37
2024-02-09T16:25:59.168Z,23.35
2024-02-09T16:28:37.369Z,27.40
2024-02-09T16:31:10.491Z,27.70
2024-02-09T16:33:47.610Z,25.55
2024-02-09T16:36:23.495Z,25.83
2024-02-09T16:38:55.657Z,26.05
2024-02-09T16:41:27.840Z,28.10
2024-02-09T16:44:00.212Z,25.63
2024-02-09T16:46:32.634Z,25.67
2024-02-09T16:49:05.692Z,27.67
2024-02-09T16:51:37.915Z,27.67
2024-02-09T16:54:11.233Z,28.95
2024-02-09T16:56:44.718Z,32.33
2024-02-09T16:59:17.775Z,36.55
2024-02-09T17:01:50.105Z,34.70
2024-02-09T17:04:22.424Z,31.15
2024-02-09T17:06:54.890Z,33.97
2024-02-09T17:09:27.296Z,30.15
2024-02-09T17:12:00.805Z,34.95
2024-02-09T17:14:33.063Z,31.90
2024-02-09T17:17:08.489Z,30.05
2024-02-09T17:19:41.397Z,31.73
2024-02-09T17:22:13.878Z,43.50
2024-02-09T17:24:46.157Z,34.72
2024-02-09T17:27:18.386Z,34.20
2024-02-09T17:29:50.786Z,32.13
2024-02-09T17:32:24.001Z,37.10
2024-02-09T17:34:56.230Z,37.88
2024-02-09T17:37:28.451Z,36.22
2024-02-09T17:40:00.777Z,38.45
2024-02-09T17:42:33.492Z,44.70
2024-02-09T17:45:06.262Z,39.83
2024-02-09T17:47:38.940Z,42.88
2024-02-09T17:50:12.518Z,43.60
2024-02-09T17:52:44.964Z,42.42
2024-02-09T17:55:18.602Z,40.08
2024-02-09T17:57:52.445Z,40.17
2024-02-09T18:00:25.342Z,39.38
2024-02-09T18:03:00.522Z,37.25
2024-02-09T18:05:34.167Z,37.78
2024-02-09T18:08:06.895Z,37.72
2024-02-09T18:10:39.481Z,36.72
2024-02-09T18:13:12.405Z,39.97
2024-02-09T18:15:46.425Z,38.65
2024-02-09T18:18:18.976Z,38.45
2024-02-09T18:20:53.362Z,36.90
2024-02-09T18:23:25.912Z,38.05
2024-02-09T18:25:58.230Z,37.03
2024-02-09T18:28:30.647Z,34.60
2024-02-09T18:31:03.126Z,33.97
2024-02-09T18:33:36.170Z,35.83
2024-02-09T18:36:08.562Z,33.30
2024-02-09T18:38:42.136Z,34.63
2024-02-09T18:41:14.334Z,35.55
2024-02-09T18:43:49.691Z,38.35
2024-02-09T18:46:22.042Z,37.70
2024-02-09T18:48:54.355Z,39.53
2024-02-09T18:51:26.535Z,37.40
2024-02-09T18:53:59.673Z,39.92
2024-02-09T18:56:31.902Z,38.03
2024-02-09T18:59:04.289Z,38.10
2024-02-09T19:01:38.131Z,40.78
2024-02-09T19:04:14.131Z,46.80
2024-02-09T19:06:47.084Z,40.10
2024-02-09T19:09:19.343Z,41.80
2024-02-09T19:11:51.908Z,41.05
2024-02-09T19:14:26.314Z,40.60
2024-02-09T19:16:58.859Z,38.67
2024-02-09T19:19:31.758Z,36.60
2024-02-09T19:22:04.319Z,36.38
2024-02-09T19:24:38.785Z,37.03
2024-02-09T19:27:11.325Z,35.22
2024-02-09T19:29:43.602Z,34.72
2024-02-09T19:32:15.898Z,33.78
2024-02-09T19:34:48.628Z,34.63
2024-02-09T19:37:21.096Z,36.40
2024-02-09T19:39:53.379Z,34.80
2024-02-09T19:42:27.628Z,33.80
2024-02-09T19:45:02.758Z,34.45
2024-02-09T19:47:41.265Z,37.65
2024-02-09T19:50:17.543Z,35.10
2024-02-09T19:52:49.922Z,34.78
2024-02-09T19:55:22.339Z,36.10
2024-02-09T19:57:54.844Z,35.08
2024-02-09T20:00:27.444Z,37.85
2024-02-09T20:03:08.793Z,35.90
2024-02-09T20:05:45.622Z,36.30
2024-02-09T20:08:21.994Z,35.60
2024-02-09T20:10:54.807Z,35.40
2024-02-09T20:13:28.091Z,35.80
2024-02-09T20:16:04.475Z,36.22
2024-02-09T20:18:37.117Z,32.17
2024-02-09T20:21:09.449Z,36.00
2024-02-09T20:23:43.978Z,30.90
2024-02-09T20:26:18.741Z,33.00
2024-02-09T20:28:54.200Z,32.47
2024-02-09T20:31:26.702Z,33.45
2024-02-09T20:33:59.027Z,36.17
2024-02-09T20:36:34.487Z,36.92
2024-02-09T20:39:07.183Z,34.83
2024-02-09T20:41:40.523Z,34.53
2024-02-09T20:44:14.394Z,33.13
2024-02-09T20:46:48.180Z,33.75
2024-02-09T20:49:20.750Z,35.85
2024-02-09T20:51:53.288Z,35.20
2024-02-09T20:54:27.250Z,35.35
2024-02-09T20:57:08.817Z,35.58
2024-02-09T20:59:42.472Z,35.40
2024-02-09T21:02:15.324Z,34.95
2024-02-09T21:07:56.241Z,31.42
2024-02-09T21:10:29.083Z,33.13
2024-02-09T21:13:01.874Z,30.45
2024-02-09T21:15:36.333Z,32.50
2024-02-09T21:18:09.145Z,34.20
2024-02-09T21:20:41.749Z,31.42
2024-02-09T21:23:15.600Z,30.20
2024-02-09T21:25:47.887Z,29.38
2024-02-09T21:28:21.168Z,34.15
2024-02-09T21:30:54.324Z,31.80
2024-02-09T21:33:27.325Z,30.63
2024-02-09T21:36:07.957Z,28.73
2024-02-09T21:38:40.453Z,28.98
2024-02-09T21:41:12.825Z,28.52
2024-02-09T21:43:47.233Z,27.95
2024-02-09T21:46:22.821Z,37.15
2024-02-09T21:48:56.790Z,31.55
2024-02-09T21:51:29.254Z,30.15
2024-02-09T21:54:01.746Z,27.48
2024-02-09T21:56:35.095Z,26.70
2024-02-09T21:59:07.701Z,28.45
2024-02-09T22:01:40.081Z,26.80
2024-02-09T22:04:12.460Z,29.02
2024-02-09T22:06:44.641Z,27.92
2024-02-09T22:09:18.027Z,29.42
2024-02-09T22:11:50.258Z,30.00
2024-02-09T22:14:22.462Z,30.33
2024-02-09T22:16:56.371Z,32.53
2024-02-09T22:19:28.745Z,33.83
2024-02-09T22:22:02.929Z,33.25
2024-02-09T22:24:35.092Z,33.38
2024-02-09T22:27:07.319Z,30.67
2024-02-09T22:29:40.417Z,31.90
2024-02-09T22:32:13.139Z,32.90
2024-02-09T22:34:47.765Z,30.17
2024-02-09T22:37:20.229Z,30.60
2024-02-09T22:39:52.604Z,31.60
2024-02-09T22:42:24.729Z,31.05
2024-02-09T22:44:56.950Z,31.02
2024-02-09T22:47:31.157Z,31.90
2024-02-09T22:50:07.420Z,31.65
2024-02-09T22:52:40.094Z,29.98
2024-02-09T22:55:12.691Z,28.02
2024-02-09T22:57:45.446Z,28.95
2024-02-09T23:00:19.458Z,27.48
2024-02-09T23:02:51.947Z,28.80
2024-02-09T23:05:24.391Z,27.42
2024-02-09T23:07:56.578Z,26.85
2024-02-09T23:10:28.955Z,30.27
2024-02-09T23:13:02.323Z,28.15
2024-02-09T23:15:36.732Z,27.95
2024-02-09T23:18:13.835Z,27.23
2024-02-09T23:20:46.320Z,32.35
2024-02-09T23:23:18.493Z,28.95
2024-02-09T23:25:51.124Z,28.38
2024-02-09T23:28:28.065Z,28.88
2024-02-09T23:31:00.470Z,28.58
2024-02-09T23:33:33.127Z,26.55
2024-02-09T23:36:05.625Z,25.63
2024-02-09T23:38:40.676Z,26.92
2024-02-09T23:41:12.943Z,25.40
2024-02-09T23:43:45.823Z,26.05
2024-02-09T23:46:18.368Z,24.38
2024-02-09T23:48:52.092Z,25.60
2024-02-09T23:51:25.394Z,25.60
2024-02-09T23:53:57.697Z,24.45
2024-02-09T23:56:30.980Z,23.45
2024-02-09T23:59:03.399Z,24.48
